createdAt,value
2019-04-07T00:00:27.864Z,9.00
2019-04-07T00:02:58.771Z,8.90
2019-04-07T00:05:31.058Z,8.80
2019-04-07T00:08:02.821Z,8.50
2019-04-07T00:10:35.579Z,8.40
2019-04-07T00:13:07.699Z,8.60
2019-04-07T00:15:39.008Z,8.50
2019-04-07T00:18:10.354Z,8.40
2019-04-07T00:20:42.110Z,8.20
2019-04-07T00:23:15.145Z,8.20
2019-04-07T00:25:47.059Z,8.20
2019-04-07T00:28:19.629Z,8.00
2019-04-07T00:30:51.285Z,8.10
2019-04-07T00:33:25.538Z,8.30
2019-04-07T00:35:57.153Z,8.10
2019-04-07T00:38:28.341Z,8.20
2019-04-07T00:41:00.446Z,8.10
2019-04-07T00:43:33.192Z,8.10
2019-04-07T00:46:04.590Z,7.80
2019-04-07T00:48:35.506Z,7.70
2019-04-07T00:51:06.649Z,7.50
2019-04-07T00:53:39.775Z,7.50
2019-04-07T00:56:10.547Z,7.60
2019-04-07T00:58:41.394Z,7.40
2019-04-07T01:01:14.163Z,7.50
2019-04-07T01:03:46.330Z,7.30
2019-04-07T01:06:17.568Z,7.30
2019-04-07T01:08:49.505Z,7.50
2019-04-07T01:11:20.897Z,7.60
2019-04-07T01:13:53.962Z,7.60
2019-04-07T01:16:25.204Z,7.60
2019-04-07T01:18:56.143Z,7.60
2019-04-07T01:21:26.957Z,7.50
2019-04-07T01:23:59.148Z,7.50
2019-04-07T01:26:30.003Z,7.60
2019-04-07T01:29:01.409Z,7.50
2019-04-07T01:31:32.934Z,7.50
2019-04-07T01:34:05.051Z,7.40
2019-04-07T01:36:36.985Z,7.40
2019-04-07T01:39:09.676Z,7.30
2019-04-07T01:41:42.163Z,7.30
2019-04-07T01:44:15.869Z,7.30
2019-04-07T01:46:53.872Z,7.30
2019-04-07T01:49:38.557Z,7.40
2019-04-07T01:52:13.842Z,7.30
2019-04-07T01:54:46.169Z,7.30
2019-04-07T01:57:21.660Z,7.30
2019-04-07T01:59:57.344Z,7.20
2019-04-07T02:02:32.452Z,7.20
2019-04-07T02:05:08.248Z,7.10
2019-04-07T02:07:50.061Z,7.20
2019-04-07T02:10:22.765Z,7.20
2019-04-07T02:12:56.659Z,7.10
2019-04-07T02:15:46.378Z,7.10
2019-04-07T02:18:18.822Z,7.10
2019-04-07T02:21:07.188Z,7.10
2019-04-07T02:23:45.616Z,7.00
2019-04-07T02:26:34.380Z,7.00
2019-04-07T02:29:15.826Z,7.00
2019-04-07T02:31:54.091Z,6.90
2019-04-07T02:34:27.654Z,6.90
2019-04-07T02:37:19.242Z,6.90
2019-04-07T02:39:58.741Z,6.90
2019-04-07T02:42:48.326Z,6.80
2019-04-07T02:45:23.746Z,6.80
2019-04-07T02:48:07.912Z,6.80
2019-04-07T02:50:49.155Z,6.80
2019-04-07T02:53:30.946Z,6.80
2019-04-07T02:56:03.572Z,6.90
2019-04-07T02:58:51.445Z,6.80
2019-04-07T03:01:37.008Z,6.70
2019-04-07T03:04:26.303Z,6.80
2019-04-07T03:07:04.974Z,6.70
2019-04-07T03:09:37.480Z,6.70
2019-04-07T03:12:10.399Z,6.70
2019-04-07T03:14:59.042Z,6.50
2019-04-07T03:17:32.591Z,6.50
2019-04-07T03:20:11.965Z,6.50
2019-04-07T03:23:01.904Z,6.50
2019-04-07T03:25:50.975Z,6.40
2019-04-07T03:28:27.153Z,6.40
2019-04-07T03:31:16.980Z,6.30
2019-04-07T03:33:59.533Z,6.40
2019-04-07T03:36:35.525Z,6.40
2019-04-07T03:39:24.377Z,6.30
2019-04-07T03:42:06.267Z,6.20
2019-04-07T03:44:47.905Z,6.30
2019-04-07T03:47:20.430Z,6.20
2019-04-07T03:49:53.049Z,6.20
2019-04-07T03:52:28.751Z,6.10
2019-04-07T03:55:15.260Z,6.10
2019-04-07T03:57:47.931Z,6.00
2019-04-07T04:01:05.759Z,5.90
2019-04-07T04:03:44.129Z,5.80
2019-04-07T04:06:32.920Z,5.70
2019-04-07T04:09:24.077Z,5.80
2019-04-07T04:11:56.879Z,5.70
2019-04-07T04:14:33.290Z,5.50
2019-04-07T04:17:04.405Z,5.60
2019-04-07T04:19:36.089Z,5.50
2019-04-07T04:22:09.088Z,5.40
2019-04-07T04:24:40.246Z,5.60
2019-04-07T04:27:11.082Z,5.40
2019-04-07T04:29:41.788Z,5.30
2019-04-07T04:32:13.953Z,5.10
2019-04-07T04:34:44.778Z,5.10
2019-04-07T04:37:15.608Z,5.30
2019-04-07T04:39:46.477Z,5.20
2019-04-07T04:42:18.706Z,5.10
2019-04-07T04:44:49.684Z,5.10
2019-04-07T04:47:20.758Z,5.10
2019-04-07T04:49:52.775Z,5.20
2019-04-07T04:52:24.815Z,5.00
2019-04-07T04:54:55.560Z,5.20
2019-04-07T04:57:27.092Z,5.20
2019-04-07T04:59:59.269Z,5.30
2019-04-07T05:02:31.179Z,5.40
2019-04-07T05:05:02.611Z,5.50
2019-04-07T05:07:47.097Z,5.50
2019-04-07T05:10:08.002Z,5.40
2019-04-07T05:12:40.200Z,5.30
2019-04-07T05:15:12.002Z,5.30
2019-04-07T05:17:43.605Z,5.40
2019-04-07T05:20:15.108Z,5.30
2019-04-07T05:22:46.367Z,5.40
2019-04-07T05:25:17.387Z,5.40
2019-04-07T05:27:49.203Z,5.50
2019-04-07T05:30:20.701Z,5.50
2019-04-07T05:32:54.527Z,5.70
2019-04-07T05:35:25.582Z,5.80
2019-04-07T05:38:02.638Z,5.90
2019-04-07T05:40:29.664Z,5.80
2019-04-07T05:43:04.617Z,6.00
2019-04-07T05:45:37.491Z,6.00
2019-04-07T05:48:08.310Z,6.20
2019-04-07T05:50:40.664Z,6.90
2019-04-07T05:53:14.602Z,8.10
2019-04-07T05:55:44.864Z,9.30
2019-04-07T05:58:16.152Z,10.50
2019-04-07T06:00:50.188Z,11.50
2019-04-07T06:03:21.962Z,12.20
2019-04-07T06:05:55.015Z,12.90
2019-04-07T06:08:33.747Z,13.30
2019-04-07T06:11:02.063Z,14.00
2019-04-07T06:13:32.840Z,14.60
2019-04-07T06:16:05.326Z,15.00
2019-04-07T06:18:36.889Z,15.40
2019-04-07T06:21:10.152Z,15.80
2019-04-07T06:23:41.609Z,16.10
2019-04-07T06:26:13.197Z,16.40
2019-04-07T06:28:46.690Z,17.00
2019-04-07T06:31:17.360Z,17.00
2019-04-07T06:33:49.126Z,17.40
2019-04-07T06:36:21.328Z,17.40
2019-04-07T06:38:52.917Z,18.00
2019-04-07T06:41:30.099Z,18.40
2019-04-07T06:44:10.134Z,18.10
2019-04-07T06:46:33.751Z,18.60
2019-04-07T06:49:08.924Z,18.30
2019-04-07T06:52:02.026Z,18.30
2019-04-07T06:54:39.925Z,18.20
2019-04-07T06:57:30.844Z,18.70
2019-04-07T07:00:25.517Z,19.00
2019-04-07T07:03:15.815Z,19.80
2019-04-07T07:06:01.215Z,19.50
2019-04-07T07:08:44.542Z,19.50
2019-04-07T07:11:24.807Z,19.40
2019-04-07T07:14:03.295Z,19.10
2019-04-07T07:16:52.700Z,19.60
2019-04-07T07:19:37.974Z,19.50
2019-04-07T07:22:15.522Z,19.20
2019-04-07T07:24:47.102Z,19.90
2019-04-07T07:27:18.982Z,21.00
2019-04-07T07:29:52.824Z,20.30
2019-04-07T07:32:24.378Z,21.20
2019-04-07T07:34:58.778Z,21.80
2019-04-07T07:37:30.110Z,22.40
2019-04-07T07:40:01.897Z,22.30
2019-04-07T07:42:33.555Z,21.60
2019-04-07T07:45:10.924Z,22.40
2019-04-07T07:47:39.078Z,22.10
2019-04-07T07:50:11.337Z,21.60
2019-04-07T07:52:44.380Z,22.00
2019-04-07T07:55:17.209Z,22.90
2019-04-07T07:57:48.182Z,23.10
2019-04-07T08:00:20.062Z,23.70
2019-04-07T08:02:52.841Z,23.20
2019-04-07T08:05:29.816Z,23.60
2019-04-07T08:07:59.382Z,24.10
2019-04-07T08:10:31.882Z,24.40
2019-04-07T08:13:07.517Z,24.70
2019-04-07T08:15:37.570Z,24.50
2019-04-07T08:18:09.706Z,24.20
2019-04-07T08:20:44.067Z,24.10
2019-04-07T08:23:14.272Z,24.90
2019-04-07T08:25:52.930Z,24.30
2019-04-07T08:28:22.476Z,25.60
2019-04-07T08:30:54.419Z,25.10
2019-04-07T08:33:28.761Z,25.60
2019-04-07T08:36:00.064Z,26.40
2019-04-07T08:38:33.242Z,26.70
2019-04-07T08:41:08.172Z,26.20
2019-04-07T08:43:37.391Z,26.20
2019-04-07T08:46:12.046Z,25.90
2019-04-07T08:48:44.412Z,26.40
2019-04-07T08:51:18.992Z,26.90
2019-04-07T08:53:51.835Z,27.10
2019-04-07T08:56:26.635Z,26.80
2019-04-07T08:58:59.174Z,27.50
2019-04-07T09:01:31.560Z,27.60
2019-04-07T09:04:04.501Z,26.80
2019-04-07T09:06:39.614Z,25.90
2019-04-07T09:09:12.594Z,26.60
2019-04-07T09:11:44.742Z,26.80
2019-04-07T09:14:17.365Z,27.10
2019-04-07T09:16:55.008Z,27.30
2019-04-07T09:19:44.181Z,28.00
2019-04-07T09:22:35.119Z,27.10
2019-04-07T09:25:13.062Z,27.30
2019-04-07T09:27:46.069Z,27.30
2019-04-07T09:30:26.227Z,27.90
2019-04-07T09:33:13.797Z,27.60
2019-04-07T09:35:59.334Z,27.30
2019-04-07T09:38:44.816Z,26.90
2019-04-07T09:41:28.356Z,27.40
2019-04-07T09:44:03.851Z,26.30
2019-04-07T09:46:36.636Z,27.00
2019-04-07T09:49:24.773Z,27.80
2019-04-07T09:51:58.248Z,27.00
2019-04-07T09:54:30.749Z,27.70
2019-04-07T09:57:09.714Z,28.20
2019-04-07T09:59:53.488Z,28.30
2019-04-07T10:02:42.592Z,27.40
2019-04-07T10:05:15.695Z,28.50
2019-04-07T10:07:57.824Z,28.50
2019-04-07T10:10:39.867Z,29.50
2019-04-07T10:13:12.431Z,29.30
2019-04-07T10:15:44.840Z,28.10
2019-04-07T10:18:36.090Z,28.30
2019-04-07T10:21:27.206Z,28.30
2019-04-07T10:24:11.840Z,28.80
2019-04-07T10:26:44.491Z,27.70
2019-04-07T10:29:20.486Z,27.90
2019-04-07T10:31:53.150Z,29.00
2019-04-07T10:34:25.970Z,29.10
2019-04-07T10:37:08.440Z,28.70
2019-04-07T10:39:43.786Z,27.90
2019-04-07T10:42:21.793Z,28.50
2019-04-07T10:45:00.638Z,28.40
2019-04-07T10:47:36.827Z,29.80
2019-04-07T10:50:17.916Z,30.20
2019-04-07T10:52:51.434Z,29.70
2019-04-07T10:55:37.916Z,31.40
2019-04-07T10:58:11.482Z,30.90
2019-04-07T11:01:02.859Z,29.20
2019-04-07T11:03:39.464Z,28.40
2019-04-07T11:06:21.606Z,28.50
2019-04-07T11:08:57.790Z,28.60
2019-04-07T11:11:48.911Z,29.50
2019-04-07T11:14:33.165Z,28.70
2019-04-07T11:17:09.010Z,28.00
2019-04-07T11:19:48.865Z,27.20
2019-04-07T11:22:38.430Z,28.00
2019-04-07T11:25:28.413Z,28.70
2019-04-07T11:28:05.227Z,28.60
2019-04-07T11:30:54.670Z,30.00
2019-04-07T11:33:45.962Z,30.80
2019-04-07T11:36:22.652Z,28.90
2019-04-07T11:39:13.385Z,28.60
2019-04-07T11:41:49.601Z,28.80
2019-04-07T11:44:26.612Z,29.10
2019-04-07T11:47:02.202Z,29.70
2019-04-07T11:49:43.482Z,29.10
2019-04-07T11:52:16.439Z,27.80
2019-04-07T11:55:07.621Z,28.60
2019-04-07T11:58:02.942Z,28.80
2019-04-07T12:00:31.416Z,29.40
2019-04-07T12:03:10.612Z,28.60
2019-04-07T12:05:44.074Z,28.10
2019-04-07T12:08:36.209Z,28.80
2019-04-07T12:11:15.739Z,30.10
2019-04-07T12:13:54.469Z,28.70
2019-04-07T12:16:30.826Z,28.60
2019-04-07T12:19:16.294Z,28.50
2019-04-07T12:21:55.930Z,28.10
2019-04-07T12:24:31.480Z,27.70
2019-04-07T12:27:17.194Z,28.30
2019-04-07T12:30:06.578Z,27.60
2019-04-07T12:32:51.766Z,27.90
2019-04-07T12:35:33.155Z,27.30
2019-04-07T12:38:26.350Z,28.40
2019-04-07T12:41:13.362Z,28.10
2019-04-07T12:43:35.966Z,28.10
2019-04-07T12:46:24.565Z,28.00
2019-04-07T12:49:14.526Z,27.70
2019-04-07T12:52:05.293Z,26.70
2019-04-07T12:54:43.576Z,27.50
2019-04-07T12:57:36.743Z,27.50
2019-04-07T13:00:26.544Z,27.20
2019-04-07T13:03:05.952Z,27.80
2019-04-07T13:05:39.174Z,28.40
2019-04-07T13:08:15.056Z,29.50
2019-04-07T13:10:51.224Z,29.50
2019-04-07T13:13:34.159Z,28.10
2019-04-07T13:16:07.947Z,28.60
2019-04-07T13:18:52.622Z,27.30
2019-04-07T13:21:34.174Z,27.60
2019-04-07T13:24:11.151Z,28.40
2019-04-07T13:26:47.406Z,27.80
2019-04-07T13:29:37.726Z,27.90
2019-04-07T13:32:17.472Z,27.70
2019-04-07T13:34:56.224Z,27.30
2019-04-07T13:37:34.939Z,27.10
2019-04-07T13:40:21.549Z,28.20
2019-04-07T13:43:11.162Z,28.20
2019-04-07T13:45:48.004Z,26.90
2019-04-07T13:48:24.002Z,27.50
2019-04-07T13:51:13.298Z,26.70
2019-04-07T13:53:58.121Z,26.70
2019-04-07T13:56:36.559Z,26.10
2019-04-07T13:59:18.127Z,26.30
2019-04-07T14:01:58.006Z,27.10
2019-04-07T14:04:44.531Z,26.50
2019-04-07T14:07:36.030Z,26.00
2019-04-07T14:10:15.574Z,26.10
2019-04-07T14:12:57.609Z,26.10
2019-04-07T14:15:47.394Z,25.90
2019-04-07T14:18:23.031Z,26.10
2019-04-07T14:21:05.068Z,25.90
2019-04-07T14:23:38.278Z,25.80
2019-04-07T14:26:15.739Z,25.60
2019-04-07T14:28:54.698Z,25.40
2019-04-07T14:31:27.302Z,25.10
2019-04-07T14:34:18.173Z,25.50
2019-04-07T14:36:57.815Z,25.00
2019-04-07T14:39:46.583Z,25.00
2019-04-07T14:42:31.658Z,25.00
2019-04-07T14:45:10.990Z,24.90
2019-04-07T14:48:01.016Z,24.90
2019-04-07T14:50:37.489Z,25.00
2019-04-07T14:53:16.483Z,24.70
2019-04-07T14:55:50.756Z,25.00
2019-04-07T14:58:26.983Z,25.20
2019-04-07T15:01:30.852Z,24.80
2019-04-07T15:04:02.261Z,24.70
2019-04-07T15:06:34.843Z,24.60
2019-04-07T15:09:13.765Z,24.40
2019-04-07T15:11:46.719Z,24.30
2019-04-07T15:14:19.218Z,23.80
2019-04-07T15:16:51.278Z,23.80
2019-04-07T15:19:23.373Z,23.70
2019-04-07T15:21:55.964Z,23.50
2019-04-07T15:24:27.312Z,23.20
2019-04-07T15:26:59.241Z,23.20
2019-04-07T15:29:31.622Z,22.70
2019-04-07T15:32:02.985Z,22.60
2019-04-07T15:34:34.354Z,22.70
2019-04-07T15:37:06.688Z,22.50
2019-04-07T15:39:40.623Z,22.30
2019-04-07T15:42:15.323Z,22.20
2019-04-07T15:44:46.210Z,22.00
2019-04-07T15:47:18.038Z,21.70
2019-04-07T15:49:51.390Z,21.10
2019-04-07T15:52:22.965Z,21.20
2019-04-07T15:54:55.345Z,20.90
2019-04-07T15:57:27.299Z,20.70
2019-04-07T16:00:02.708Z,20.70
2019-04-07T16:02:33.527Z,20.50
2019-04-07T16:05:07.200Z,20.60
2019-04-07T16:07:39.471Z,20.50
2019-04-07T16:10:11.881Z,20.50
2019-04-07T16:12:49.358Z,20.40
2019-04-07T16:15:18.184Z,20.20
2019-04-07T16:17:50.325Z,20.30
2019-04-07T16:20:25.109Z,20.30
2019-04-07T16:22:55.369Z,20.40
2019-04-07T16:25:28.228Z,20.00
2019-04-07T16:28:00.317Z,20.00
2019-04-07T16:30:34.045Z,19.80
2019-04-07T16:33:05.730Z,19.90
2019-04-07T16:35:37.078Z,19.90
2019-04-07T16:38:08.241Z,19.50
2019-04-07T16:40:42.100Z,19.60
2019-04-07T16:43:16.282Z,19.40
2019-04-07T16:45:47.180Z,19.30
2019-04-07T16:48:19.771Z,19.20
2019-04-07T16:50:55.190Z,19.00
2019-04-07T16:53:24.824Z,19.00
2019-04-07T16:55:56.048Z,18.90
2019-04-07T16:58:27.695Z,18.90
2019-04-07T17:01:00.969Z,18.80
2019-04-07T17:03:32.304Z,18.90
2019-04-07T17:06:03.441Z,19.10
2019-04-07T17:08:34.690Z,18.60
2019-04-07T17:11:07.841Z,18.70
2019-04-07T17:13:41.406Z,18.80
2019-04-07T17:16:12.225Z,18.50
2019-04-07T17:18:44.269Z,18.20
2019-04-07T17:21:18.546Z,18.20
2019-04-07T17:23:53.344Z,18.00
2019-04-07T17:26:23.853Z,18.10
2019-04-07T17:28:56.979Z,18.00
2019-04-07T17:31:32.034Z,18.10
2019-04-07T17:34:04.933Z,18.00
2019-04-07T17:36:36.484Z,17.80
2019-04-07T17:39:26.558Z,17.80
2019-04-07T17:42:00.307Z,17.70
2019-04-07T17:44:41.393Z,17.50
2019-04-07T17:47:34.471Z,17.30
2019-04-07T17:50:16.775Z,17.20
2019-04-07T17:52:59.725Z,17.00
2019-04-07T17:55:45.784Z,16.70
2019-04-07T17:58:39.545Z,16.60
2019-04-07T18:01:24.704Z,16.40
2019-04-07T18:04:15.493Z,16.00
2019-04-07T18:06:51.987Z,16.00
2019-04-07T18:09:31.560Z,15.90
2019-04-07T18:12:21.858Z,15.40
2019-04-07T18:15:12.267Z,15.20
2019-04-07T18:17:48.571Z,15.40
2019-04-07T18:20:40.471Z,15.30
2019-04-07T18:23:17.190Z,15.10
2019-04-07T18:26:06.308Z,15.10
2019-04-07T18:28:39.153Z,15.00
2019-04-07T18:31:22.285Z,14.70
2019-04-07T18:34:04.035Z,14.30
2019-04-07T18:36:55.308Z,14.30
2019-04-07T18:39:51.696Z,14.10
2019-04-07T18:42:24.110Z,13.60
2019-04-07T18:45:04.061Z,13.70
2019-04-07T18:47:56.819Z,13.60
2019-04-07T18:50:39.962Z,13.40
2019-04-07T18:53:31.867Z,13.10
2019-04-07T18:56:22.590Z,12.80
2019-04-07T18:58:56.567Z,12.80
2019-04-07T19:01:30.069Z,12.80
2019-04-07T19:04:17.301Z,12.80
2019-04-07T19:06:54.057Z,12.50
2019-04-07T19:09:32.254Z,12.40
2019-04-07T19:12:13.376Z,12.30
2019-04-07T19:14:48.255Z,12.00
2019-04-07T19:17:25.941Z,11.80
2019-04-07T19:20:00.717Z,11.60
2019-04-07T19:22:54.058Z,11.50
2019-04-07T19:25:46.430Z,11.30
2019-04-07T19:28:25.179Z,11.10
2019-04-07T19:30:59.263Z,11.10
2019-04-07T19:33:33.473Z,11.10
2019-04-07T19:36:12.219Z,11.20
2019-04-07T19:38:59.425Z,11.30
2019-04-07T19:41:33.960Z,11.20
2019-04-07T19:44:13.745Z,10.80
2019-04-07T19:46:46.338Z,10.80
2019-04-07T19:49:22.659Z,10.70
2019-04-07T19:52:14.381Z,10.80
2019-04-07T19:54:59.895Z,10.70
2019-04-07T19:57:48.923Z,10.70
2019-04-07T20:00:26.636Z,10.70
2019-04-07T20:03:11.799Z,10.60
2019-04-07T20:06:00.596Z,10.50
2019-04-07T20:08:50.044Z,10.50
2019-04-07T20:11:27.719Z,10.40
2019-04-07T20:14:15.740Z,10.50
2019-04-07T20:17:01.103Z,10.30
2019-04-07T20:19:50.209Z,10.40
2019-04-07T20:22:27.131Z,10.30
2019-04-07T20:25:18.548Z,10.20
2019-04-07T20:27:56.130Z,10.20
2019-04-07T20:30:46.889Z,10.10
2019-04-07T20:33:33.456Z,9.90
2019-04-07T20:36:20.108Z,9.80
2019-04-07T20:39:02.789Z,9.60
2019-04-07T20:41:36.915Z,9.60
2019-04-07T20:44:32.370Z,9.30
2019-04-07T20:47:13.376Z,9.20
2019-04-07T20:49:58.875Z,9.20
2019-04-07T20:52:41.083Z,9.10
2019-04-07T20:55:20.013Z,9.30
2019-04-07T20:58:12.277Z,9.40
2019-04-07T21:00:39.441Z,9.50
2019-04-07T21:03:30.596Z,9.60
2019-04-07T21:06:10.511Z,9.60
2019-04-07T21:09:02.749Z,9.60
2019-04-07T21:11:51.890Z,9.70
2019-04-07T21:14:24.362Z,9.70
2019-04-07T21:17:15.420Z,9.70
2019-04-07T21:19:48.049Z,9.70
2019-04-07T21:22:23.879Z,9.70
2019-04-07T21:25:13.683Z,9.70
2019-04-07T21:27:48.939Z,9.80
2019-04-07T21:30:23.507Z,9.70
2019-04-07T21:33:00.627Z,9.80
2019-04-07T21:35:43.333Z,9.80
2019-04-07T21:38:19.767Z,9.70
2019-04-07T21:40:57.693Z,9.70
2019-04-07T21:43:47.183Z,9.70
2019-04-07T21:46:37.063Z,9.70
2019-04-07T21:49:15.374Z,9.80
2019-04-07T21:51:56.866Z,9.80
2019-04-07T21:54:41.490Z,9.90
2019-04-07T21:57:26.713Z,9.90
2019-04-07T22:00:16.693Z,9.90
2019-04-07T22:02:54.995Z,9.80
2019-04-07T22:05:28.566Z,9.80
2019-04-07T22:08:10.134Z,9.80
2019-04-07T22:10:36.763Z,9.70
2019-04-07T22:13:08.350Z,9.70
2019-04-07T22:15:45.813Z,9.60
2019-04-07T22:18:13.586Z,9.50
2019-04-07T22:20:45.355Z,9.50
2019-04-07T22:23:16.679Z,9.40
2019-04-07T22:25:52.015Z,9.30
2019-04-07T22:28:27.644Z,9.30
2019-04-07T22:30:57.595Z,9.30
2019-04-07T22:33:30.892Z,9.30
2019-04-07T22:36:01.725Z,9.40
2019-04-07T22:38:34.407Z,9.40
2019-04-07T22:41:08.083Z,9.30
2019-04-07T22:43:39.228Z,9.20
2019-04-07T22:46:17.534Z,9.20
2019-04-07T22:48:45.917Z,9.10
2019-04-07T22:51:16.864Z,9.00
2019-04-07T22:53:47.834Z,9.00
2019-04-07T22:56:18.571Z,8.90
2019-04-07T22:58:51.952Z,8.80
2019-04-07T23:01:23.024Z,8.90
2019-04-07T23:03:54.740Z,8.80
2019-04-07T23:06:26.578Z,8.70
2019-04-07T23:08:57.439Z,8.70
2019-04-07T23:11:28.394Z,8.70
2019-04-07T23:13:59.332Z,8.60
2019-04-07T23:16:31.666Z,8.50
2019-04-07T23:19:02.756Z,8.50
2019-04-07T23:21:34.094Z,8.30
2019-04-07T23:24:05.509Z,8.30
2019-04-07T23:26:38.228Z,8.20
2019-04-07T23:29:10.034Z,8.10
2019-04-07T23:31:41.183Z,8.00
2019-04-07T23:34:11.915Z,7.90
2019-04-07T23:36:43.572Z,7.70
2019-04-07T23:39:15.279Z,7.60
2019-04-07T23:41:46.049Z,7.60
2019-04-07T23:44:16.933Z,7.60
2019-04-07T23:46:48.940Z,7.60
2019-04-07T23:49:20.407Z,7.60
2019-04-07T23:51:51.374Z,7.60
2019-04-07T23:54:22.588Z,7.60
2019-04-07T23:56:54.097Z,7.50
2019-04-07T23:59:24.996Z,7.50
